Time;durP1;ratioP1;P1;durP2;ratioP2;P2;SDS_P1;SDS_P2;PMS_P1;PMS_P2;Temp;Humidity;BMP_temperature;BMP_pressure;BME280_temperature;BME280_humidity;BME280_pressure;Samples;Min_cycle;Max_cycle;Signal;HPM_P1;HPM_P2
2022/12/16 00:00:26;;;;;;;9.20;5.25;;;;;;;;;;5068830;28;20519;-74
2022/12/16 00:02:52;;;;;;;7.68;4.80;;;;;;;;;;5063227;28;20036;-74
2022/12/16 00:05:21;;;;;;;9.98;5.30;;;;;;;;;;5072997;28;20484;-74
2022/12/16 00:07:48;;;;;;;14.52;5.18;;;;;;;;;;5055547;28;20405;-74
2022/12/16 00:10:14;;;;;;;11.00;4.80;;;;;;;;;;5055030;28;20128;-74
2022/12/16 00:12:40;;;;;;;13.13;5.07;;;;;;;;;;5054416;28;20057;-74
2022/12/16 00:15:06;;;;;;;9.50;5.55;;;;;;;;;;5054799;28;20120;-74
2022/12/16 00:17:32;;;;;;;9.45;5.22;;;;;;;;;;5054628;28;20162;-73
2022/12/16 00:19:58;;;;;;;10.90;5.03;;;;;;;;;;5060352;28;20045;-73
2022/12/16 00:22:24;;;;;;;10.38;5.45;;;;;;;;;;5061864;28;20052;-73
2022/12/16 00:24:51;;;;;;;11.88;5.13;;;;;;;;;;5048156;28;20060;-73
2022/12/16 00:27:17;;;;;;;10.40;4.65;;;;;;;;;;5035905;28;20045;-73
2022/12/16 00:29:43;;;;;;;10.63;5.38;;;;;;;;;;5040097;28;20044;-76
2022/12/16 00:32:09;;;;;;;11.68;5.43;;;;;;;;;;5028039;28;20037;-73
2022/12/16 00:34:35;;;;;;;10.80;4.50;;;;;;;;;;5053258;28;20041;-73
2022/12/16 00:37:01;;;;;;;15.35;5.78;;;;;;;;;;5063274;28;20059;-74
2022/12/16 00:39:27;;;;;;;11.80;5.68;;;;;;;;;;5040876;28;20052;-74
2022/12/16 00:41:53;;;;;;;11.70;5.65;;;;;;;;;;5035977;28;20495;-74
2022/12/16 00:44:19;;;;;;;9.88;5.78;;;;;;;;;;5033114;28;20388;-73
2022/12/16 00:46:45;;;;;;;11.55;5.70;;;;;;;;;;5036691;28;20041;-74
2022/12/16 00:49:11;;;;;;;10.85;4.80;;;;;;;;;;5036435;28;20048;-74
2022/12/16 00:51:37;;;;;;;12.52;5.95;;;;;;;;;;5029133;28;20047;-74
2022/12/16 00:54:03;;;;;;;11.93;5.82;;;;;;;;;;5067773;28;20052;-73
2022/12/16 00:56:29;;;;;;;9.27;5.78;;;;;;;;;;5054236;28;20110;-74
2022/12/16 00:58:55;;;;;;;14.90;6.60;;;;;;;;;;5037513;28;20061;-74
2022/12/16 01:01:21;;;;;;;13.32;5.75;;;;;;;;;;5074041;28;20102;-74
2022/12/16 01:03:47;;;;;;;12.05;5.72;;;;;;;;;;5058116;28;20047;-73
2022/12/16 01:06:15;;;;;;;12.60;6.28;;;;;;;;;;5054139;28;20068;-73
2022/12/16 01:08:47;;;;;;;12.90;6.15;;;;;;;;;;5057155;28;20044;-74
2022/12/16 01:11:13;;;;;;;11.65;5.25;;;;;;;;;;5063552;28;20071;-74
2022/12/16 01:13:39;;;;;;;10.13;5.82;;;;;;;;;;5055491;28;20049;-74
2022/12/16 01:16:06;;;;;;;9.10;5.10;;;;;;;;;;5063227;28;20044;-74
2022/12/16 01:18:32;;;;;;;11.07;4.97;;;;;;;;;;5058867;28;20051;-74
2022/12/16 01:21:05;;;;;;;9.90;4.95;;;;;;;;;;5045570;28;20470;-74
2022/12/16 01:23:32;;;;;;;9.93;5.03;;;;;;;;;;5054451;28;20131;-74
2022/12/16 01:25:58;;;;;;;7.28;4.18;;;;;;;;;;5062184;28;20523;-74
2022/12/16 01:28:25;;;;;;;9.57;4.95;;;;;;;;;;5041525;28;20044;-74
2022/12/16 01:31:00;;;;;;;8.70;5.18;;;;;;;;;;5059605;28;20033;-74
2022/12/16 01:33:27;;;;;;;6.93;4.57;;;;;;;;;;5067219;28;20075;-74
2022/12/16 01:35:57;;;;;;;10.38;5.55;;;;;;;;;;5066519;28;20122;-74
2022/12/16 01:38:26;;;;;;;9.85;5.93;;;;;;;;;;5060938;28;20044;-74
2022/12/16 01:40:53;;;;;;;7.70;4.50;;;;;;;;;;5073182;28;20044;-74
2022/12/16 01:43:22;;;;;;;9.98;4.72;;;;;;;;;;5063821;28;20050;-74
2022/12/16 01:45:48;;;;;;;7.43;4.80;;;;;;;;;;5058247;28;20048;-74
2022/12/16 01:48:23;;;;;;;9.00;5.28;;;;;;;;;;5053514;28;20037;-74
2022/12/16 01:50:50;;;;;;;13.25;5.45;;;;;;;;;;5052505;28;20033;-74
2022/12/16 01:53:16;;;;;;;11.05;5.70;;;;;;;;;;5062776;28;20433;-74
2022/12/16 01:55:45;;;;;;;11.90;5.38;;;;;;;;;;5056423;28;20048;-73
2022/12/16 01:58:13;;;;;;;10.80;5.28;;;;;;;;;;5063345;28;20036;-74
2022/12/16 02:00:40;;;;;;;8.85;4.82;;;;;;;;;;5059284;28;20043;-74
2022/12/16 02:03:06;;;;;;;9.90;4.78;;;;;;;;;;5054976;28;20041;-74
2022/12/16 02:05:38;;;;;;;11.25;4.93;;;;;;;;;;5053505;28;20037;-74
2022/12/16 02:08:12;;;;;;;8.93;4.85;;;;;;;;;;5052728;28;20102;-74
2022/12/16 02:10:41;;;;;;;8.30;4.70;;;;;;;;;;5041430;28;20055;-74
2022/12/16 02:13:26;;;;;;;6.78;3.90;;;;;;;;;;5051953;28;20049;-74
2022/12/16 02:16:04;;;;;;;8.10;4.18;;;;;;;;;;5050270;28;20127;-74
2022/12/16 02:18:45;;;;;;;7.93;4.05;;;;;;;;;;5053040;28;20041;-74
2022/12/16 02:21:30;;;;;;;8.65;4.15;;;;;;;;;;5052522;28;20045;-73
2022/12/16 02:24:15;;;;;;;8.25;5.00;;;;;;;;;;5027614;28;20065;-74
2022/12/16 02:26:44;;;;;;;5.65;3.88;;;;;;;;;;5035930;28;20052;-74
2022/12/16 02:29:28;;;;;;;10.57;4.82;;;;;;;;;;5053446;28;20045;-74
2022/12/16 02:32:13;;;;;;;7.85;3.90;;;;;;;;;;5052881;28;20053;-74
2022/12/16 02:34:44;;;;;;;6.07;3.80;;;;;;;;;;5052546;28;20057;-74
2022/12/16 02:37:46;;;;;;;6.82;4.05;;;;;;;;;;5051778;28;20044;-73
2022/12/16 02:40:28;;;;;;;8.65;4.63;;;;;;;;;;5010985;28;20053;-73
2022/12/16 02:42:57;;;;;;;7.97;4.50;;;;;;;;;;5010762;28;20049;-74
2022/12/16 02:45:28;;;;;;;12.73;5.30;;;;;;;;;;5011003;28;20062;-74
2022/12/16 02:47:54;;;;;;;9.02;4.78;;;;;;;;;;5010823;28;20060;-74
2022/12/16 02:50:27;;;;;;;9.13;4.88;;;;;;;;;;5010214;28;20077;-74
2022/12/16 02:52:54;;;;;;;8.02;5.68;;;;;;;;;;5009198;28;24773;-73
2022/12/16 02:55:23;;;;;;;6.60;4.55;;;;;;;;;;5009532;28;20096;-73
2022/12/16 02:57:51;;;;;;;6.93;4.75;;;;;;;;;;5010658;28;20402;-73
2022/12/16 03:00:21;;;;;;;7.93;4.40;;;;;;;;;;5011349;28;20387;-73
2022/12/16 03:02:53;;;;;;;7.70;4.85;;;;;;;;;;4998495;28;20049;-73
2022/12/16 03:05:31;;;;;;;7.68;4.88;;;;;;;;;;5014725;28;20045;-73
2022/12/16 03:07:59;;;;;;;6.82;4.68;;;;;;;;;;5013763;28;20050;-73
2022/12/16 03:10:27;;;;;;;7.95;4.93;;;;;;;;;;5015118;28;20048;-73
2022/12/16 03:12:55;;;;;;;7.82;4.80;;;;;;;;;;4994577;28;20069;-73
2022/12/16 03:15:24;;;;;;;6.68;4.20;;;;;;;;;;5028451;28;20205;-73
2022/12/16 03:17:51;;;;;;;10.40;4.50;;;;;;;;;;5036180;28;20041;-73
2022/12/16 03:20:39;;;;;;;7.95;4.82;;;;;;;;;;5036160;28;20067;-73
2022/12/16 03:23:08;;;;;;;8.90;4.90;;;;;;;;;;5018442;28;20046;-73
2022/12/16 03:25:36;;;;;;;9.70;5.00;;;;;;;;;;5036486;28;20488;-73
2022/12/16 03:28:06;;;;;;;8.05;5.43;;;;;;;;;;5021037;28;20065;-73
2022/12/16 03:30:35;;;;;;;7.50;4.82;;;;;;;;;;5034769;28;20045;-73
2022/12/16 03:33:03;;;;;;;8.40;5.05;;;;;;;;;;5037779;28;20124;-73
2022/12/16 03:35:42;;;;;;;10.07;5.65;;;;;;;;;;5015265;28;20116;-73
2022/12/16 03:38:10;;;;;;;10.98;5.15;;;;;;;;;;5029885;28;20124;-73
2022/12/16 03:40:37;;;;;;;9.55;5.38;;;;;;;;;;5035538;28;20042;-73
2022/12/16 03:43:04;;;;;;;6.25;4.45;;;;;;;;;;5035451;28;20085;-73
2022/12/16 03:45:37;;;;;;;5.88;4.30;;;;;;;;;;5035966;28;20048;-73
2022/12/16 03:48:03;;;;;;;4.63;3.75;;;;;;;;;;5035825;28;20076;-73
2022/12/16 03:50:32;;;;;;;6.28;4.00;;;;;;;;;;5035827;28;20048;-73
2022/12/16 03:52:58;;;;;;;7.43;4.03;;;;;;;;;;5035415;28;20045;-73
2022/12/16 03:55:24;;;;;;;6.38;3.78;;;;;;;;;;5031354;28;20069;-73
2022/12/16 03:57:50;;;;;;;7.38;4.22;;;;;;;;;;5034536;28;20037;-73
2022/12/16 04:00:16;;;;;;;8.85;4.35;;;;;;;;;;5035497;28;20381;-73
2022/12/16 04:02:43;;;;;;;9.50;4.78;;;;;;;;;;5017776;28;20056;-73
2022/12/16 04:05:09;;;;;;;5.47;3.80;;;;;;;;;;5044173;28;20042;-73
2022/12/16 04:07:35;;;;;;;5.93;4.28;;;;;;;;;;5034539;28;20125;-73
2022/12/16 04:10:01;;;;;;;8.07;5.13;;;;;;;;;;5035838;28;20168;-73
2022/12/16 04:26:17;;;;;;;8.02;4.22;;;;;;;;;;5016219;28;20072;-74
2022/12/16 04:28:43;;;;;;;5.07;3.95;;;;;;;;;;5035472;28;20055;-74
2022/12/16 04:31:10;;;;;;;6.25;4.45;;;;;;;;;;5015413;28;20547;-74
